sensor_id;sensor_type;location;lat;lon;timestamp;temperature;humidity
70456;DHT22;57916;51.996;5.180;2023-03-16T00:02:11;8.70;61.10
70456;DHT22;57916;51.996;5.180;2023-03-16T00:04:38;8.70;61.10
70456;DHT22;57916;51.996;5.180;2023-03-16T00:07:10;8.70;61.20
70456;DHT22;57916;51.996;5.180;2023-03-16T00:09:38;8.70;61.20
70456;DHT22;57916;51.996;5.180;2023-03-16T00:12:11;8.70;61.30
70456;DHT22;57916;51.996;5.180;2023-03-16T00:14:43;8.80;61.30
70456;DHT22;57916;51.996;5.180;2023-03-16T00:17:12;8.70;61.40
70456;DHT22;57916;51.996;5.180;2023-03-16T00:19:49;8.70;61.50
70456;DHT22;57916;51.996;5.180;2023-03-16T00:22:26;8.80;61.60
70456;DHT22;57916;51.996;5.180;2023-03-16T00:24:54;8.80;61.50
70456;DHT22;57916;51.996;5.180;2023-03-16T00:27:22;8.80;61.60
70456;DHT22;57916;51.996;5.180;2023-03-16T00:29:51;8.80;61.80
70456;DHT22;57916;51.996;5.180;2023-03-16T00:32:24;8.80;61.90
70456;DHT22;57916;51.996;5.180;2023-03-16T00:34:51;8.80;62.00
70456;DHT22;57916;51.996;5.180;2023-03-16T00:37:20;8.80;62.10
70456;DHT22;57916;51.996;5.180;2023-03-16T00:39:50;8.80;62.10
70456;DHT22;57916;51.996;5.180;2023-03-16T00:42:18;8.80;62.20
70456;DHT22;57916;51.996;5.180;2023-03-16T00:44:45;8.80;62.10
70456;DHT22;57916;51.996;5.180;2023-03-16T00:47:13;8.80;62.30
70456;DHT22;57916;51.996;5.180;2023-03-16T00:49:43;8.80;62.20
70456;DHT22;57916;51.996;5.180;2023-03-16T00:52:12;8.80;62.20
70456;DHT22;57916;51.996;5.180;2023-03-16T00:54:44;8.90;62.30
70456;DHT22;57916;51.996;5.180;2023-03-16T00:57:12;8.90;62.30
70456;DHT22;57916;51.996;5.180;2023-03-16T00:59:40;8.90;62.30
70456;DHT22;57916;51.996;5.180;2023-03-16T01:02:09;8.90;62.40
70456;DHT22;57916;51.996;5.180;2023-03-16T01:04:36;8.90;62.40
70456;DHT22;57916;51.996;5.180;2023-03-16T01:07:07;8.90;62.50
70456;DHT22;57916;51.996;5.180;2023-03-16T01:09:34;9.00;62.60
70456;DHT22;57916;51.996;5.180;2023-03-16T01:12:07;9.00;62.60
70456;DHT22;57916;51.996;5.180;2023-03-16T01:14:35;9.00;62.70
70456;DHT22;57916;51.996;5.180;2023-03-16T01:17:03;8.90;62.90
70456;DHT22;57916;51.996;5.180;2023-03-16T01:19:31;9.00;62.90
70456;DHT22;57916;51.996;5.180;2023-03-16T01:22:04;9.00;63.00
70456;DHT22;57916;51.996;5.180;2023-03-16T01:24:31;8.90;62.90
70456;DHT22;57916;51.996;5.180;2023-03-16T01:26:59;9.00;63.10
70456;DHT22;57916;51.996;5.180;2023-03-16T01:29:27;9.00;63.10
70456;DHT22;57916;51.996;5.180;2023-03-16T01:31:56;9.00;63.10
70456;DHT22;57916;51.996;5.180;2023-03-16T01:34:23;9.10;63.10
70456;DHT22;57916;51.996;5.180;2023-03-16T01:36:50;9.10;63.00
70456;DHT22;57916;51.996;5.180;2023-03-16T01:39:25;9.10;63.10
70456;DHT22;57916;51.996;5.180;2023-03-16T01:41:52;9.10;63.00
70456;DHT22;57916;51.996;5.180;2023-03-16T01:44:22;9.10;63.10
70456;DHT22;57916;51.996;5.180;2023-03-16T01:46:53;9.10;63.20
70456;DHT22;57916;51.996;5.180;2023-03-16T01:49:32;9.20;63.10
70456;DHT22;57916;51.996;5.180;2023-03-16T01:52:17;9.10;63.10
70456;DHT22;57916;51.996;5.180;2023-03-16T01:57:22;9.20;63.20
70456;DHT22;57916;51.996;5.180;2023-03-16T01:59:54;9.20;63.20
70456;DHT22;57916;51.996;5.180;2023-03-16T02:02:25;9.20;63.30
70456;DHT22;57916;51.996;5.180;2023-03-16T02:05:03;9.20;63.40
70456;DHT22;57916;51.996;5.180;2023-03-16T02:07:36;9.20;63.30
70456;DHT22;57916;51.996;5.180;2023-03-16T02:10:07;9.20;63.40
70456;DHT22;57916;51.996;5.180;2023-03-16T02:12:34;9.20;63.50
70456;DHT22;57916;51.996;5.180;2023-03-16T02:15:03;9.10;63.50
70456;DHT22;57916;51.996;5.180;2023-03-16T02:17:31;9.20;63.60
70456;DHT22;57916;51.996;5.180;2023-03-16T02:22:50;9.20;63.70
70456;DHT22;57916;51.996;5.180;2023-03-16T02:25:23;9.10;63.70
70456;DHT22;57916;51.996;5.180;2023-03-16T02:30:45;9.20;64.00
70456;DHT22;57916;51.996;5.180;2023-03-16T02:33:13;9.10;64.10
70456;DHT22;57916;51.996;5.180;2023-03-16T02:35:43;9.20;64.10
70456;DHT22;57916;51.996;5.180;2023-03-16T02:38:10;9.10;64.30
70456;DHT22;57916;51.996;5.180;2023-03-16T02:40:45;9.20;64.20
70456;DHT22;57916;51.996;5.180;2023-03-16T02:43:24;9.20;64.30
70456;DHT22;57916;51.996;5.180;2023-03-16T02:46:08;9.20;64.60
70456;DHT22;57916;51.996;5.180;2023-03-16T02:48:41;9.20;64.70
70456;DHT22;57916;51.996;5.180;2023-03-16T02:51:09;9.20;64.70
70456;DHT22;57916;51.996;5.180;2023-03-16T02:53:37;9.20;64.60
70456;DHT22;57916;51.996;5.180;2023-03-16T02:56:05;9.10;64.60
70456;DHT22;57916;51.996;5.180;2023-03-16T02:58:34;9.20;64.60
70456;DHT22;57916;51.996;5.180;2023-03-16T03:01:04;9.20;64.50
70456;DHT22;57916;51.996;5.180;2023-03-16T03:03:33;9.20;64.70
70456;DHT22;57916;51.996;5.180;2023-03-16T03:06:00;9.20;64.70
70456;DHT22;57916;51.996;5.180;2023-03-16T03:08:34;9.20;64.80
70456;DHT22;57916;51.996;5.180;2023-03-16T03:11:01;9.20;64.70
70456;DHT22;57916;51.996;5.180;2023-03-16T03:13:28;9.10;64.70
70456;DHT22;57916;51.996;5.180;2023-03-16T03:15:55;9.20;65.20
70456;DHT22;57916;51.996;5.180;2023-03-16T03:18:24;9.10;65.60
70456;DHT22;57916;51.996;5.180;2023-03-16T03:20:51;9.10;65.70
70456;DHT22;57916;51.996;5.180;2023-03-16T03:23:19;9.10;66.10
70456;DHT22;57916;51.996;5.180;2023-03-16T03:25:46;9.00;66.30
70456;DHT22;57916;51.996;5.180;2023-03-16T03:28:14;9.00;66.60
70456;DHT22;57916;51.996;5.180;2023-03-16T03:30:41;9.00;66.80
70456;DHT22;57916;51.996;5.180;2023-03-16T03:33:08;9.00;66.90
70456;DHT22;57916;51.996;5.180;2023-03-16T03:35:35;9.00;67.30
70456;DHT22;57916;51.996;5.180;2023-03-16T03:38:02;9.00;67.50
70456;DHT22;57916;51.996;5.180;2023-03-16T03:40:29;9.00;67.50
70456;DHT22;57916;51.996;5.180;2023-03-16T03:43:00;9.00;67.50
70456;DHT22;57916;51.996;5.180;2023-03-16T03:45:29;8.90;67.50
70456;DHT22;57916;51.996;5.180;2023-03-16T03:47:56;8.90;67.60
70456;DHT22;57916;51.996;5.180;2023-03-16T03:50:23;8.90;67.90
70456;DHT22;57916;51.996;5.180;2023-03-16T03:53:17;8.90;68.00
70456;DHT22;57916;51.996;5.180;2023-03-16T03:56:04;8.90;68.10
70456;DHT22;57916;51.996;5.180;2023-03-16T03:58:31;8.90;68.30
70456;DHT22;57916;51.996;5.180;2023-03-16T04:00:58;8.90;68.50
70456;DHT22;57916;51.996;5.180;2023-03-16T04:03:25;8.90;68.40
70456;DHT22;57916;51.996;5.180;2023-03-16T04:05:52;8.80;68.50
70456;DHT22;57916;51.996;5.180;2023-03-16T04:08:20;8.80;68.40
70456;DHT22;57916;51.996;5.180;2023-03-16T04:10:47;8.80;68.60
70456;DHT22;57916;51.996;5.180;2023-03-16T04:13:14;8.80;68.70
70456;DHT22;57916;51.996;5.180;2023-03-16T04:15:41;8.80;68.80
70456;DHT22;57916;51.996;5.180;2023-03-16T04:18:22;8.80;68.80
70456;DHT22;57916;51.996;5.180;2023-03-16T04:20:49;8.80;68.80
70456;DHT22;57916;51.996;5.180;2023-03-16T04:23:20;8.80;68.70
70456;DHT22;57916;51.996;5.180;2023-03-16T04:25:49;8.80;68.70
70456;DHT22;57916;51.996;5.180;2023-03-16T04:28:18;8.80;68.70
70456;DHT22;57916;51.996;5.180;2023-03-16T04:30:49;8.80;69.60
70456;DHT22;57916;51.996;5.180;2023-03-16T04:33:29;8.80;68.70
70456;DHT22;57916;51.996;5.180;2023-03-16T04:35:59;8.80;68.70
70456;DHT22;57916;51.996;5.180;2023-03-16T04:38:26;8.80;68.50
70456;DHT22;57916;51.996;5.180;2023-03-16T04:40:55;8.80;68.40
70456;DHT22;57916;51.996;5.180;2023-03-16T04:43:26;8.80;68.30
70456;DHT22;57916;51.996;5.180;2023-03-16T04:45:59;8.80;68.30
70456;DHT22;57916;51.996;5.180;2023-03-16T04:48:29;8.80;68.30
70456;DHT22;57916;51.996;5.180;2023-03-16T04:50:59;8.90;68.30
70456;DHT22;57916;51.996;5.180;2023-03-16T04:53:30;8.90;68.30
70456;DHT22;57916;51.996;5.180;2023-03-16T04:56:01;8.90;68.20
70456;DHT22;57916;51.996;5.180;2023-03-16T04:58:31;8.90;68.20
70456;DHT22;57916;51.996;5.180;2023-03-16T05:01:00;8.90;68.20
70456;DHT22;57916;51.996;5.180;2023-03-16T05:03:29;8.90;68.20
70456;DHT22;57916;51.996;5.180;2023-03-16T05:05:58;8.90;68.30
70456;DHT22;57916;51.996;5.180;2023-03-16T05:08:29;8.90;68.30
70456;DHT22;57916;51.996;5.180;2023-03-16T05:10:57;8.90;68.40
70456;DHT22;57916;51.996;5.180;2023-03-16T05:13:28;8.90;68.60
70456;DHT22;57916;51.996;5.180;2023-03-16T05:15:58;8.90;68.50
70456;DHT22;57916;51.996;5.180;2023-03-16T05:18:29;8.90;68.80
70456;DHT22;57916;51.996;5.180;2023-03-16T05:20:56;8.90;69.80
70456;DHT22;57916;51.996;5.180;2023-03-16T05:23:27;8.90;69.20
70456;DHT22;57916;51.996;5.180;2023-03-16T05:25:59;8.90;69.30
70456;DHT22;57916;51.996;5.180;2023-03-16T05:28:28;8.90;69.30
70456;DHT22;57916;51.996;5.180;2023-03-16T05:30:59;8.90;69.40
70456;DHT22;57916;51.996;5.180;2023-03-16T05:33:35;8.90;69.50
70456;DHT22;57916;51.996;5.180;2023-03-16T05:36:06;8.90;69.50
70456;DHT22;57916;51.996;5.180;2023-03-16T05:38:35;8.80;69.50
70456;DHT22;57916;51.996;5.180;2023-03-16T05:41:03;8.80;69.50
70456;DHT22;57916;51.996;5.180;2023-03-16T05:43:44;8.80;69.70
70456;DHT22;57916;51.996;5.180;2023-03-16T05:46:12;8.80;69.90
70456;DHT22;57916;51.996;5.180;2023-03-16T05:48:39;8.80;69.90
70456;DHT22;57916;51.996;5.180;2023-03-16T05:51:07;8.80;70.00
70456;DHT22;57916;51.996;5.180;2023-03-16T05:53:35;8.80;70.10
70456;DHT22;57916;51.996;5.180;2023-03-16T05:56:08;8.80;70.00
70456;DHT22;57916;51.996;5.180;2023-03-16T05:58:39;8.80;70.00
70456;DHT22;57916;51.996;5.180;2023-03-16T06:01:08;8.80;70.10
70456;DHT22;57916;51.996;5.180;2023-03-16T06:03:37;8.80;70.10
70456;DHT22;57916;51.996;5.180;2023-03-16T06:06:07;8.80;70.20
70456;DHT22;57916;51.996;5.180;2023-03-16T06:08:43;8.80;70.20
70456;DHT22;57916;51.996;5.180;2023-03-16T06:11:11;8.80;70.30
70456;DHT22;57916;51.996;5.180;2023-03-16T06:13:39;8.80;70.30
70456;DHT22;57916;51.996;5.180;2023-03-16T06:16:06;8.80;70.20
70456;DHT22;57916;51.996;5.180;2023-03-16T06:18:34;8.90;70.30
70456;DHT22;57916;51.996;5.180;2023-03-16T06:21:02;8.90;70.20
70456;DHT22;57916;51.996;5.180;2023-03-16T06:23:31;8.90;70.20
70456;DHT22;57916;51.996;5.180;2023-03-16T06:25:58;8.90;70.20
70456;DHT22;57916;51.996;5.180;2023-03-16T06:28:29;9.00;70.30
70456;DHT22;57916;51.996;5.180;2023-03-16T06:30:57;9.00;70.20
70456;DHT22;57916;51.996;5.180;2023-03-16T06:33:28;9.10;70.30
70456;DHT22;57916;51.996;5.180;2023-03-16T06:35:55;9.10;70.30
70456;DHT22;57916;51.996;5.180;2023-03-16T06:38:30;9.10;70.30
70456;DHT22;57916;51.996;5.180;2023-03-16T06:41:07;9.10;70.20
70456;DHT22;57916;51.996;5.180;2023-03-16T06:43:35;9.10;70.10
70456;DHT22;57916;51.996;5.180;2023-03-16T06:46:02;9.10;70.10
70456;DHT22;57916;51.996;5.180;2023-03-16T06:48:30;9.10;70.20
70456;DHT22;57916;51.996;5.180;2023-03-16T06:50:57;9.10;70.30
70456;DHT22;57916;51.996;5.180;2023-03-16T06:53:26;9.10;70.40
70456;DHT22;57916;51.996;5.180;2023-03-16T06:55:55;9.00;70.50
70456;DHT22;57916;51.996;5.180;2023-03-16T06:58:22;9.10;70.60
70456;DHT22;57916;51.996;5.180;2023-03-16T07:00:49;9.10;70.60
70456;DHT22;57916;51.996;5.180;2023-03-16T07:03:17;9.00;70.60
70456;DHT22;57916;51.996;5.180;2023-03-16T07:05:50;9.10;70.60
70456;DHT22;57916;51.996;5.180;2023-03-16T07:08:17;9.10;70.50
70456;DHT22;57916;51.996;5.180;2023-03-16T07:10:44;9.10;70.50
70456;DHT22;57916;51.996;5.180;2023-03-16T07:13:11;9.10;70.50
70456;DHT22;57916;51.996;5.180;2023-03-16T07:15:41;9.10;70.60
70456;DHT22;57916;51.996;5.180;2023-03-16T07:18:08;9.20;70.70
70456;DHT22;57916;51.996;5.180;2023-03-16T07:20:35;9.20;70.90
70456;DHT22;57916;51.996;5.180;2023-03-16T07:23:04;9.20;71.00
70456;DHT22;57916;51.996;5.180;2023-03-16T07:25:33;9.20;71.00
70456;DHT22;57916;51.996;5.180;2023-03-16T07:28:00;9.20;71.10
70456;DHT22;57916;51.996;5.180;2023-03-16T07:30:32;9.20;71.00
70456;DHT22;57916;51.996;5.180;2023-03-16T07:33:00;9.20;70.90
70456;DHT22;57916;51.996;5.180;2023-03-16T07:35:29;9.20;70.80
70456;DHT22;57916;51.996;5.180;2023-03-16T07:37:56;9.20;70.70
70456;DHT22;57916;51.996;5.180;2023-03-16T07:40:24;9.20;70.80
70456;DHT22;57916;51.996;5.180;2023-03-16T07:42:56;9.20;70.90
70456;DHT22;57916;51.996;5.180;2023-03-16T07:45:28;9.20;70.70
70456;DHT22;57916;51.996;5.180;2023-03-16T07:47:56;9.20;70.50
70456;DHT22;57916;51.996;5.180;2023-03-16T07:50:35;9.20;70.60
70456;DHT22;57916;51.996;5.180;2023-03-16T07:53:02;9.20;70.60
70456;DHT22;57916;51.996;5.180;2023-03-16T07:55:32;9.20;70.80
70456;DHT22;57916;51.996;5.180;2023-03-16T07:58:03;9.20;70.80
70456;DHT22;57916;51.996;5.180;2023-03-16T08:00:34;9.20;70.80
70456;DHT22;57916;51.996;5.180;2023-03-16T08:03:01;9.20;70.60
70456;DHT22;57916;51.996;5.180;2023-03-16T08:05:29;9.30;70.80
70456;DHT22;57916;51.996;5.180;2023-03-16T08:07:59;9.30;70.70
70456;DHT22;57916;51.996;5.180;2023-03-16T08:10:29;9.40;70.40
70456;DHT22;57916;51.996;5.180;2023-03-16T08:13:03;9.40;70.30
70456;DHT22;57916;51.996;5.180;2023-03-16T08:15:31;9.50;70.20
70456;DHT22;57916;51.996;5.180;2023-03-16T08:18:24;9.50;70.00
70456;DHT22;57916;51.996;5.180;2023-03-16T08:20:53;9.60;69.70
70456;DHT22;57916;51.996;5.180;2023-03-16T08:23:20;9.60;69.60
70456;DHT22;57916;51.996;5.180;2023-03-16T08:25:51;9.60;69.40
70456;DHT22;57916;51.996;5.180;2023-03-16T08:28:18;9.60;69.30
70456;DHT22;57916;51.996;5.180;2023-03-16T08:30:50;9.60;69.20
70456;DHT22;57916;51.996;5.180;2023-03-16T08:33:49;9.60;69.20
70456;DHT22;57916;51.996;5.180;2023-03-16T08:36:20;9.70;69.20
70456;DHT22;57916;51.996;5.180;2023-03-16T08:38:51;9.70;68.90
70456;DHT22;57916;51.996;5.180;2023-03-16T08:41:35;9.70;69.00
70456;DHT22;57916;51.996;5.180;2023-03-16T08:44:08;9.80;68.50
70456;DHT22;57916;51.996;5.180;2023-03-16T08:46:38;9.80;68.20
70456;DHT22;57916;51.996;5.180;2023-03-16T08:49:06;9.90;68.00
70456;DHT22;57916;51.996;5.180;2023-03-16T08:51:33;9.90;67.70
70456;DHT22;57916;51.996;5.180;2023-03-16T08:54:00;9.90;67.50
70456;DHT22;57916;51.996;5.180;2023-03-16T08:56:27;10.00;67.30
70456;DHT22;57916;51.996;5.180;2023-03-16T08:58:56;10.10;67.00
70456;DHT22;57916;51.996;5.180;2023-03-16T09:01:23;10.10;67.00
70456;DHT22;57916;51.996;5.180;2023-03-16T09:03:51;10.10;66.80
70456;DHT22;57916;51.996;5.180;2023-03-16T09:06:18;10.10;66.40
70456;DHT22;57916;51.996;5.180;2023-03-16T09:08:45;10.10;66.20
70456;DHT22;57916;51.996;5.180;2023-03-16T09:11:16;10.10;65.90
70456;DHT22;57916;51.996;5.180;2023-03-16T09:13:44;10.20;65.70
70456;DHT22;57916;51.996;5.180;2023-03-16T09:16:12;10.20;65.70
70456;DHT22;57916;51.996;5.180;2023-03-16T09:18:41;10.30;65.40
70456;DHT22;57916;51.996;5.180;2023-03-16T09:21:09;10.30;65.20
70456;DHT22;57916;51.996;5.180;2023-03-16T09:23:40;10.30;64.90
70456;DHT22;57916;51.996;5.180;2023-03-16T09:26:09;10.50;64.70
70456;DHT22;57916;51.996;5.180;2023-03-16T09:28:37;10.50;64.10
70456;DHT22;57916;51.996;5.180;2023-03-16T09:31:05;10.60;64.00
70456;DHT22;57916;51.996;5.180;2023-03-16T09:33:33;10.70;64.40
70456;DHT22;57916;51.996;5.180;2023-03-16T09:36:01;10.80;63.80
70456;DHT22;57916;51.996;5.180;2023-03-16T09:38:29;10.80;64.20
70456;DHT22;57916;51.996;5.180;2023-03-16T09:40:58;10.90;63.30
70456;DHT22;57916;51.996;5.180;2023-03-16T09:48:33;11.10;62.70
70456;DHT22;57916;51.996;5.180;2023-03-16T09:51:03;11.20;62.60
70456;DHT22;57916;51.996;5.180;2023-03-16T09:53:34;11.30;62.30
70456;DHT22;57916;51.996;5.180;2023-03-16T09:56:26;11.40;62.00
70456;DHT22;57916;51.996;5.180;2023-03-16T09:58:54;11.50;61.50
70456;DHT22;57916;51.996;5.180;2023-03-16T10:07:03;12.10;60.00
70456;DHT22;57916;51.996;5.180;2023-03-16T10:09:45;12.20;59.40
70456;DHT22;57916;51.996;5.180;2023-03-16T10:12:14;12.30;59.30
70456;DHT22;57916;51.996;5.180;2023-03-16T10:14:49;12.40;59.60
70456;DHT22;57916;51.996;5.180;2023-03-16T10:17:40;12.50;58.70
70456;DHT22;57916;51.996;5.180;2023-03-16T10:20:14;12.70;58.70
70456;DHT22;57916;51.996;5.180;2023-03-16T10:22:45;12.90;57.90
70456;DHT22;57916;51.996;5.180;2023-03-16T10:25:22;13.00;58.10
70456;DHT22;57916;51.996;5.180;2023-03-16T10:27:51;13.20;57.40
70456;DHT22;57916;51.996;5.180;2023-03-16T10:32:51;13.40;55.40
70456;DHT22;57916;51.996;5.180;2023-03-16T10:35:25;13.50;56.60
70456;DHT22;57916;51.996;5.180;2023-03-16T10:37:53;13.80;55.30
70456;DHT22;57916;51.996;5.180;2023-03-16T10:40:22;13.90;53.40
70456;DHT22;57916;51.996;5.180;2023-03-16T10:42:49;14.00;53.30
70456;DHT22;57916;51.996;5.180;2023-03-16T10:45:28;14.00;54.00
70456;DHT22;57916;51.996;5.180;2023-03-16T10:48:29;14.00;52.80
70456;DHT22;57916;51.996;5.180;2023-03-16T10:51:05;14.10;53.40
70456;DHT22;57916;51.996;5.180;2023-03-16T10:53:35;14.10;53.50
70456;DHT22;57916;51.996;5.180;2023-03-16T10:56:18;14.10;53.10
70456;DHT22;57916;51.996;5.180;2023-03-16T10:58:45;14.00;52.90
70456;DHT22;57916;51.996;5.180;2023-03-16T11:01:17;14.00;53.30
70456;DHT22;57916;51.996;5.180;2023-03-16T11:03:56;14.00;52.80
70456;DHT22;57916;51.996;5.180;2023-03-16T11:06:27;14.00;52.80
70456;DHT22;57916;51.996;5.180;2023-03-16T11:09:13;14.00;52.10
70456;DHT22;57916;51.996;5.180;2023-03-16T11:11:46;13.90;53.10
70456;DHT22;57916;51.996;5.180;2023-03-16T11:14:19;14.00;52.60
70456;DHT22;57916;51.996;5.180;2023-03-16T11:16:55;14.00;52.70
70456;DHT22;57916;51.996;5.180;2023-03-16T11:22:16;14.10;51.80
70456;DHT22;57916;51.996;5.180;2023-03-16T11:27:46;14.20;52.00
70456;DHT22;57916;51.996;5.180;2023-03-16T11:32:49;14.20;51.40
70456;DHT22;57916;51.996;5.180;2023-03-16T11:38:32;14.40;51.50
70456;DHT22;57916;51.996;5.180;2023-03-16T11:46:17;14.70;50.40
70456;DHT22;57916;51.996;5.180;2023-03-16T11:49:00;14.80;49.60
70456;DHT22;57916;51.996;5.180;2023-03-16T12:00:30;15.00;47.80
70456;DHT22;57916;51.996;5.180;2023-03-16T12:05:58;15.00;47.70
70456;DHT22;57916;51.996;5.180;2023-03-16T12:14:31;15.20;48.30
70456;DHT22;57916;51.996;5.180;2023-03-16T12:22:27;15.80;48.20
70456;DHT22;57916;51.996;5.180;2023-03-16T12:24:56;15.90;47.50
70456;DHT22;57916;51.996;5.180;2023-03-16T12:27:31;16.00;47.00
70456;DHT22;57916;51.996;5.180;2023-03-16T12:38:51;16.00;46.50
70456;DHT22;57916;51.996;5.180;2023-03-16T12:44:26;16.20;45.80
70456;DHT22;57916;51.996;5.180;2023-03-16T12:49:25;16.30;44.60
70456;DHT22;57916;51.996;5.180;2023-03-16T12:52:20;16.30;44.90
70456;DHT22;57916;51.996;5.180;2023-03-16T12:57:39;16.40;44.70
70456;DHT22;57916;51.996;5.180;2023-03-16T13:00:08;16.50;44.40
70456;DHT22;57916;51.996;5.180;2023-03-16T13:02:38;16.40;44.30
70456;DHT22;57916;51.996;5.180;2023-03-16T13:05:12;16.40;44.30
70456;DHT22;57916;51.996;5.180;2023-03-16T13:07:51;16.30;43.80
70456;DHT22;57916;51.996;5.180;2023-03-16T13:10:21;16.30;44.60
70456;DHT22;57916;51.996;5.180;2023-03-16T13:12:48;16.20;44.90
70456;DHT22;57916;51.996;5.180;2023-03-16T13:18:01;16.40;44.70
70456;DHT22;57916;51.996;5.180;2023-03-16T13:20:33;16.40;44.90
70456;DHT22;57916;51.996;5.180;2023-03-16T13:28:51;16.60;43.00
70456;DHT22;57916;51.996;5.180;2023-03-16T13:31:24;16.50;42.40
70456;DHT22;57916;51.996;5.180;2023-03-16T13:33:55;16.40;42.40
70456;DHT22;57916;51.996;5.180;2023-03-16T13:36:25;16.40;42.60
70456;DHT22;57916;51.996;5.180;2023-03-16T13:39:25;16.40;42.70
70456;DHT22;57916;51.996;5.180;2023-03-16T13:44:30;16.50;43.70
70456;DHT22;57916;51.996;5.180;2023-03-16T13:47:03;16.50;42.50
70456;DHT22;57916;51.996;5.180;2023-03-16T13:49:30;16.50;42.30
70456;DHT22;57916;51.996;5.180;2023-03-16T13:51:57;16.50;42.00
70456;DHT22;57916;51.996;5.180;2023-03-16T13:54:29;16.50;42.50
70456;DHT22;57916;51.996;5.180;2023-03-16T13:56:58;16.50;42.70
70456;DHT22;57916;51.996;5.180;2023-03-16T13:59:27;16.60;43.90
70456;DHT22;57916;51.996;5.180;2023-03-16T14:01:59;16.60;42.90
70456;DHT22;57916;51.996;5.180;2023-03-16T14:04:29;16.60;44.10
70456;DHT22;57916;51.996;5.180;2023-03-16T14:06:59;16.60;43.20
70456;DHT22;57916;51.996;5.180;2023-03-16T14:09:29;16.60;43.60
70456;DHT22;57916;51.996;5.180;2023-03-16T14:11:57;16.60;42.90
70456;DHT22;57916;51.996;5.180;2023-03-16T14:14:28;16.60;43.10
70456;DHT22;57916;51.996;5.180;2023-03-16T14:17:07;16.60;42.80
70456;DHT22;57916;51.996;5.180;2023-03-16T14:19:41;16.60;42.30
70456;DHT22;57916;51.996;5.180;2023-03-16T14:22:13;16.70;42.00
70456;DHT22;57916;51.996;5.180;2023-03-16T14:24:41;16.60;41.50
70456;DHT22;57916;51.996;5.180;2023-03-16T14:27:25;16.60;42.50
70456;DHT22;57916;51.996;5.180;2023-03-16T14:30:00;16.70;42.40
70456;DHT22;57916;51.996;5.180;2023-03-16T14:32:30;16.60;41.50
70456;DHT22;57916;51.996;5.180;2023-03-16T14:35:19;16.60;42.00
70456;DHT22;57916;51.996;5.180;2023-03-16T14:37:46;16.70;41.20
70456;DHT22;57916;51.996;5.180;2023-03-16T14:40:26;16.60;42.20
70456;DHT22;57916;51.996;5.180;2023-03-16T14:42:56;16.70;41.70
70456;DHT22;57916;51.996;5.180;2023-03-16T14:45:31;16.80;41.50
70456;DHT22;57916;51.996;5.180;2023-03-16T14:48:11;16.70;41.80
70456;DHT22;57916;51.996;5.180;2023-03-16T14:50:43;16.80;41.50
70456;DHT22;57916;51.996;5.180;2023-03-16T14:53:09;16.80;41.80
70456;DHT22;57916;51.996;5.180;2023-03-16T14:55:36;16.80;41.00
70456;DHT22;57916;51.996;5.180;2023-03-16T14:58:03;16.80;41.80
70456;DHT22;57916;51.996;5.180;2023-03-16T15:00:31;16.80;42.00
70456;DHT22;57916;51.996;5.180;2023-03-16T15:03:08;16.80;41.80
70456;DHT22;57916;51.996;5.180;2023-03-16T15:05:39;16.80;41.50
70456;DHT22;57916;51.996;5.180;2023-03-16T15:08:15;16.70;40.90
70456;DHT22;57916;51.996;5.180;2023-03-16T15:10:43;16.80;41.30
70456;DHT22;57916;51.996;5.180;2023-03-16T15:13:13;16.70;40.60
70456;DHT22;57916;51.996;5.180;2023-03-16T15:15:50;16.70;41.30
70456;DHT22;57916;51.996;5.180;2023-03-16T15:18:17;16.70;41.80
70456;DHT22;57916;51.996;5.180;2023-03-16T15:20:44;16.80;41.60
70456;DHT22;57916;51.996;5.180;2023-03-16T15:23:15;16.90;41.70
70456;DHT22;57916;51.996;5.180;2023-03-16T15:25:43;16.90;41.10
70456;DHT22;57916;51.996;5.180;2023-03-16T15:28:21;16.90;41.50
70456;DHT22;57916;51.996;5.180;2023-03-16T15:30:53;17.00;42.20
70456;DHT22;57916;51.996;5.180;2023-03-16T15:33:20;17.00;41.00
70456;DHT22;57916;51.996;5.180;2023-03-16T15:35:49;17.00;40.80
70456;DHT22;57916;51.996;5.180;2023-03-16T15:38:31;17.10;40.90
70456;DHT22;57916;51.996;5.180;2023-03-16T15:40:59;17.10;41.80
70456;DHT22;57916;51.996;5.180;2023-03-16T15:43:28;17.10;40.70
70456;DHT22;57916;51.996;5.180;2023-03-16T15:45:56;17.00;40.60
70456;DHT22;57916;51.996;5.180;2023-03-16T15:48:24;17.00;40.50
70456;DHT22;57916;51.996;5.180;2023-03-16T15:51:21;17.00;40.20
70456;DHT22;57916;51.996;5.180;2023-03-16T15:53:54;17.00;40.50
70456;DHT22;57916;51.996;5.180;2023-03-16T15:56:25;17.00;40.50
70456;DHT22;57916;51.996;5.180;2023-03-16T15:59:01;17.00;40.20
70456;DHT22;57916;51.996;5.180;2023-03-16T16:01:30;16.90;39.80
70456;DHT22;57916;51.996;5.180;2023-03-16T16:04:00;16.90;40.10
70456;DHT22;57916;51.996;5.180;2023-03-16T16:06:27;16.90;40.60
70456;DHT22;57916;51.996;5.180;2023-03-16T16:08:56;16.90;40.70
70456;DHT22;57916;51.996;5.180;2023-03-16T16:11:25;17.00;40.90
70456;DHT22;57916;51.996;5.180;2023-03-16T16:13:56;17.00;40.80
70456;DHT22;57916;51.996;5.180;2023-03-16T16:16:26;17.00;40.50
70456;DHT22;57916;51.996;5.180;2023-03-16T16:18:54;17.00;40.80
70456;DHT22;57916;51.996;5.180;2023-03-16T16:21:24;17.00;40.70
70456;DHT22;57916;51.996;5.180;2023-03-16T16:23:54;17.00;41.00
70456;DHT22;57916;51.996;5.180;2023-03-16T16:29:14;17.00;41.00
70456;DHT22;57916;51.996;5.180;2023-03-16T16:31:42;16.90;41.30
70456;DHT22;57916;51.996;5.180;2023-03-16T16:34:17;16.90;41.40
70456;DHT22;57916;51.996;5.180;2023-03-16T16:36:47;16.90;42.20
70456;DHT22;57916;51.996;5.180;2023-03-16T16:39:14;16.80;41.80
70456;DHT22;57916;51.996;5.180;2023-03-16T16:41:42;16.70;41.80
70456;DHT22;57916;51.996;5.180;2023-03-16T16:44:15;16.60;41.70
70456;DHT22;57916;51.996;5.180;2023-03-16T16:46:43;16.60;42.00
70456;DHT22;57916;51.996;5.180;2023-03-16T16:49:14;16.50;42.30
70456;DHT22;57916;51.996;5.180;2023-03-16T16:51:45;16.50;42.40
70456;DHT22;57916;51.996;5.180;2023-03-16T16:54:18;16.50;42.00
70456;DHT22;57916;51.996;5.180;2023-03-16T16:56:48;16.40;42.10
70456;DHT22;57916;51.996;5.180;2023-03-16T16:59:17;16.30;42.10
70456;DHT22;57916;51.996;5.180;2023-03-16T17:01:46;16.30;42.00
70456;DHT22;57916;51.996;5.180;2023-03-16T17:04:18;16.20;42.10
70456;DHT22;57916;51.996;5.180;2023-03-16T17:06:45;16.10;42.40
70456;DHT22;57916;51.996;5.180;2023-03-16T17:09:12;16.00;42.50
70456;DHT22;57916;51.996;5.180;2023-03-16T17:11:41;16.00;43.00
70456;DHT22;57916;51.996;5.180;2023-03-16T17:14:15;15.90;43.20
70456;DHT22;57916;51.996;5.180;2023-03-16T17:16:43;15.80;43.40
70456;DHT22;57916;51.996;5.180;2023-03-16T17:19:22;15.80;43.80
70456;DHT22;57916;51.996;5.180;2023-03-16T17:21:51;15.60;44.00
70456;DHT22;57916;51.996;5.180;2023-03-16T17:24:18;15.50;43.90
70456;DHT22;57916;51.996;5.180;2023-03-16T17:26:50;15.50;43.80
70456;DHT22;57916;51.996;5.180;2023-03-16T17:29:31;15.40;43.70
70456;DHT22;57916;51.996;5.180;2023-03-16T17:32:06;15.30;43.70
70456;DHT22;57916;51.996;5.180;2023-03-16T17:34:34;15.20;43.70
70456;DHT22;57916;51.996;5.180;2023-03-16T17:37:01;15.10;43.70